sensor_id;sensor_type;location;lat;lon;timestamp;P1;durP1;ratioP1;P2;durP2;ratioP2
33993;SDS011;20673;48.980;8.138;2023-11-22T00:00:34;10.70;;;5.90;;
33993;SDS011;20673;48.980;8.138;2023-11-22T00:03:00;6.63;;;5.07;;
33993;SDS011;20673;48.980;8.138;2023-11-22T00:05:26;6.17;;;5.20;;
33993;SDS011;20673;48.980;8.138;2023-11-22T00:07:52;8.37;;;5.10;;
33993;SDS011;20673;48.980;8.138;2023-11-22T00:10:18;9.53;;;5.60;;
33993;SDS011;20673;48.980;8.138;2023-11-22T00:12:45;10.93;;;5.50;;
33993;SDS011;20673;48.980;8.138;2023-11-22T00:15:11;5.50;;;4.60;;
33993;SDS011;20673;48.980;8.138;2023-11-22T00:17:38;9.80;;;4.90;;
33993;SDS011;20673;48.980;8.138;2023-11-22T00:20:04;6.53;;;5.10;;
33993;SDS011;20673;48.980;8.138;2023-11-22T00:22:32;6.70;;;5.03;;
33993;SDS011;20673;48.980;8.138;2023-11-22T00:24:59;7.70;;;4.73;;
33993;SDS011;20673;48.980;8.138;2023-11-22T00:27:29;8.97;;;4.83;;
33993;SDS011;20673;48.980;8.138;2023-11-22T00:29:59;5.45;;;3.87;;
33993;SDS011;20673;48.980;8.138;2023-11-22T00:32:25;7.23;;;4.77;;
33993;SDS011;20673;48.980;8.138;2023-11-22T00:34:51;5.80;;;4.17;;
33993;SDS011;20673;48.980;8.138;2023-11-22T00:37:18;5.00;;;3.80;;
33993;SDS011;20673;48.980;8.138;2023-11-22T00:39:44;5.33;;;3.60;;
33993;SDS011;20673;48.980;8.138;2023-11-22T00:42:10;5.37;;;4.27;;
33993;SDS011;20673;48.980;8.138;2023-11-22T00:44:37;6.47;;;3.67;;
33993;SDS011;20673;48.980;8.138;2023-11-22T00:47:03;5.20;;;3.97;;
33993;SDS011;20673;48.980;8.138;2023-11-22T00:49:30;4.97;;;3.70;;
33993;SDS011;20673;48.980;8.138;2023-11-22T00:51:56;6.00;;;3.43;;
33993;SDS011;20673;48.980;8.138;2023-11-22T00:54:23;5.10;;;3.50;;
33993;SDS011;20673;48.980;8.138;2023-11-22T00:56:51;8.53;;;5.00;;
33993;SDS011;20673;48.980;8.138;2023-11-22T00:59:17;6.57;;;4.10;;
33993;SDS011;20673;48.980;8.138;2023-11-22T01:01:45;5.57;;;3.47;;
33993;SDS011;20673;48.980;8.138;2023-11-22T01:04:11;5.07;;;3.80;;
33993;SDS011;20673;48.980;8.138;2023-11-22T01:06:37;4.83;;;3.70;;
33993;SDS011;20673;48.980;8.138;2023-11-22T01:09:03;4.67;;;3.47;;
33993;SDS011;20673;48.980;8.138;2023-11-22T01:11:29;4.60;;;3.80;;
33993;SDS011;20673;48.980;8.138;2023-11-22T01:13:55;7.30;;;3.90;;
33993;SDS011;20673;48.980;8.138;2023-11-22T01:16:22;5.10;;;3.93;;
33993;SDS011;20673;48.980;8.138;2023-11-22T01:18:48;6.20;;;3.43;;
33993;SDS011;20673;48.980;8.138;2023-11-22T01:21:14;3.73;;;3.10;;
33993;SDS011;20673;48.980;8.138;2023-11-22T01:23:40;6.47;;;3.70;;
33993;SDS011;20673;48.980;8.138;2023-11-22T01:26:06;4.33;;;3.70;;
33993;SDS011;20673;48.980;8.138;2023-11-22T01:28:32;5.70;;;3.77;;
33993;SDS011;20673;48.980;8.138;2023-11-22T01:31:01;5.73;;;3.60;;
33993;SDS011;20673;48.980;8.138;2023-11-22T01:33:27;4.17;;;3.07;;
33993;SDS011;20673;48.980;8.138;2023-11-22T01:35:54;5.27;;;3.60;;
33993;SDS011;20673;48.980;8.138;2023-11-22T01:38:21;5.23;;;3.33;;
33993;SDS011;20673;48.980;8.138;2023-11-22T01:40:50;4.73;;;3.80;;
33993;SDS011;20673;48.980;8.138;2023-11-22T01:43:17;6.40;;;3.57;;
33993;SDS011;20673;48.980;8.138;2023-11-22T01:45:46;6.00;;;3.93;;
33993;SDS011;20673;48.980;8.138;2023-11-22T01:48:12;6.77;;;4.20;;
33993;SDS011;20673;48.980;8.138;2023-11-22T01:50:39;7.00;;;5.30;;
33993;SDS011;20673;48.980;8.138;2023-11-22T01:53:08;6.90;;;4.70;;
33993;SDS011;20673;48.980;8.138;2023-11-22T01:55:39;5.70;;;3.87;;
33993;SDS011;20673;48.980;8.138;2023-11-22T01:58:07;7.77;;;4.03;;
33993;SDS011;20673;48.980;8.138;2023-11-22T02:00:36;7.10;;;3.87;;
33993;SDS011;20673;48.980;8.138;2023-11-22T02:03:05;4.67;;;3.60;;
33993;SDS011;20673;48.980;8.138;2023-11-22T02:05:31;4.00;;;3.37;;
33993;SDS011;20673;48.980;8.138;2023-11-22T02:07:59;6.73;;;3.57;;
33993;SDS011;20673;48.980;8.138;2023-11-22T02:10:25;7.13;;;3.63;;
33993;SDS011;20673;48.980;8.138;2023-11-22T02:12:51;4.80;;;3.27;;
33993;SDS011;20673;48.980;8.138;2023-11-22T02:15:17;7.00;;;3.43;;
33993;SDS011;20673;48.980;8.138;2023-11-22T02:17:44;5.57;;;3.30;;
33993;SDS011;20673;48.980;8.138;2023-11-22T02:20:10;4.03;;;3.30;;
33993;SDS011;20673;48.980;8.138;2023-11-22T02:22:46;4.13;;;3.20;;
33993;SDS011;20673;48.980;8.138;2023-11-22T02:25:13;4.20;;;3.10;;
33993;SDS011;20673;48.980;8.138;2023-11-22T02:27:42;4.13;;;3.20;;
33993;SDS011;20673;48.980;8.138;2023-11-22T02:30:08;5.87;;;3.77;;
33993;SDS011;20673;48.980;8.138;2023-11-22T02:32:36;6.73;;;3.50;;
33993;SDS011;20673;48.980;8.138;2023-11-22T02:35:04;4.60;;;3.23;;
33993;SDS011;20673;48.980;8.138;2023-11-22T02:37:34;5.47;;;3.80;;
33993;SDS011;20673;48.980;8.138;2023-11-22T02:40:16;4.90;;;3.70;;
33993;SDS011;20673;48.980;8.138;2023-11-22T02:42:48;5.43;;;3.40;;
33993;SDS011;20673;48.980;8.138;2023-11-22T02:45:16;6.23;;;3.57;;
33993;SDS011;20673;48.980;8.138;2023-11-22T02:47:45;4.90;;;3.87;;
33993;SDS011;20673;48.980;8.138;2023-11-22T02:50:12;4.93;;;3.17;;
33993;SDS011;20673;48.980;8.138;2023-11-22T02:52:39;6.13;;;3.37;;
33993;SDS011;20673;48.980;8.138;2023-11-22T02:55:05;5.73;;;3.67;;
33993;SDS011;20673;48.980;8.138;2023-11-22T02:57:33;5.20;;;3.30;;
33993;SDS011;20673;48.980;8.138;2023-11-22T03:00:01;4.90;;;3.67;;
33993;SDS011;20673;48.980;8.138;2023-11-22T03:02:30;6.60;;;3.77;;
33993;SDS011;20673;48.980;8.138;2023-11-22T03:04:57;4.40;;;3.27;;
33993;SDS011;20673;48.980;8.138;2023-11-22T03:07:24;6.00;;;3.33;;
33993;SDS011;20673;48.980;8.138;2023-11-22T03:09:51;6.33;;;3.77;;
33993;SDS011;20673;48.980;8.138;2023-11-22T03:12:18;5.33;;;3.13;;
33993;SDS011;20673;48.980;8.138;2023-11-22T03:14:48;6.43;;;3.27;;
33993;SDS011;20673;48.980;8.138;2023-11-22T03:17:15;5.70;;;3.20;;
33993;SDS011;20673;48.980;8.138;2023-11-22T03:19:41;4.63;;;3.37;;
33993;SDS011;20673;48.980;8.138;2023-11-22T03:22:07;4.70;;;2.83;;
33993;SDS011;20673;48.980;8.138;2023-11-22T03:24:34;5.47;;;3.10;;
33993;SDS011;20673;48.980;8.138;2023-11-22T03:27:02;4.23;;;2.83;;
33993;SDS011;20673;48.980;8.138;2023-11-22T03:29:28;3.73;;;2.80;;
33993;SDS011;20673;48.980;8.138;2023-11-22T03:31:55;4.50;;;2.57;;
33993;SDS011;20673;48.980;8.138;2023-11-22T03:34:21;3.23;;;2.40;;
33993;SDS011;20673;48.980;8.138;2023-11-22T03:36:47;3.80;;;2.63;;
33993;SDS011;20673;48.980;8.138;2023-11-22T03:39:17;3.97;;;2.37;;
33993;SDS011;20673;48.980;8.138;2023-11-22T03:41:43;4.10;;;2.17;;
33993;SDS011;20673;48.980;8.138;2023-11-22T03:44:10;3.87;;;1.80;;
33993;SDS011;20673;48.980;8.138;2023-11-22T03:46:39;2.87;;;2.33;;
33993;SDS011;20673;48.980;8.138;2023-11-22T03:49:05;2.03;;;1.50;;
33993;SDS011;20673;48.980;8.138;2023-11-22T03:51:35;2.97;;;2.13;;
33993;SDS011;20673;48.980;8.138;2023-11-22T03:54:03;2.67;;;1.77;;
33993;SDS011;20673;48.980;8.138;2023-11-22T03:56:31;3.43;;;2.13;;
33993;SDS011;20673;48.980;8.138;2023-11-22T03:58:57;2.73;;;1.60;;
33993;SDS011;20673;48.980;8.138;2023-11-22T04:01:23;5.50;;;2.00;;
33993;SDS011;20673;48.980;8.138;2023-11-22T04:03:49;13.40;;;2.70;;
33993;SDS011;20673;48.980;8.138;2023-11-22T04:06:16;2.37;;;1.80;;
33993;SDS011;20673;48.980;8.138;2023-11-22T04:08:44;2.67;;;2.10;;
33993;SDS011;20673;48.980;8.138;2023-11-22T04:11:12;2.60;;;1.97;;
33993;SDS011;20673;48.980;8.138;2023-11-22T04:13:39;2.93;;;2.23;;
33993;SDS011;20673;48.980;8.138;2023-11-22T04:16:06;5.00;;;2.70;;
33993;SDS011;20673;48.980;8.138;2023-11-22T04:18:34;3.73;;;2.80;;
33993;SDS011;20673;48.980;8.138;2023-11-22T04:21:03;3.87;;;2.40;;
33993;SDS011;20673;48.980;8.138;2023-11-22T04:23:30;4.27;;;2.50;;
33993;SDS011;20673;48.980;8.138;2023-11-22T04:26:01;4.13;;;2.93;;
33993;SDS011;20673;48.980;8.138;2023-11-22T04:28:28;3.07;;;2.27;;
33993;SDS011;20673;48.980;8.138;2023-11-22T04:30:55;5.90;;;3.70;;
33993;SDS011;20673;48.980;8.138;2023-11-22T04:33:22;3.93;;;2.90;;
33993;SDS011;20673;48.980;8.138;2023-11-22T04:35:49;4.90;;;2.60;;
33993;SDS011;20673;48.980;8.138;2023-11-22T04:38:16;4.80;;;3.10;;
33993;SDS011;20673;48.980;8.138;2023-11-22T04:40:43;5.10;;;3.17;;
33993;SDS011;20673;48.980;8.138;2023-11-22T04:43:10;6.03;;;3.23;;
33993;SDS011;20673;48.980;8.138;2023-11-22T04:45:36;6.33;;;3.37;;
33993;SDS011;20673;48.980;8.138;2023-11-22T04:48:03;5.50;;;3.57;;
33993;SDS011;20673;48.980;8.138;2023-11-22T04:50:32;9.13;;;4.50;;
33993;SDS011;20673;48.980;8.138;2023-11-22T04:52:58;6.50;;;4.20;;
33993;SDS011;20673;48.980;8.138;2023-11-22T04:55:26;7.00;;;3.93;;
33993;SDS011;20673;48.980;8.138;2023-11-22T04:57:54;8.37;;;3.93;;
33993;SDS011;20673;48.980;8.138;2023-11-22T05:00:23;8.97;;;3.97;;
33993;SDS011;20673;48.980;8.138;2023-11-22T05:02:50;6.37;;;4.43;;
33993;SDS011;20673;48.980;8.138;2023-11-22T05:05:16;5.30;;;4.10;;
33993;SDS011;20673;48.980;8.138;2023-11-22T05:07:42;6.67;;;4.20;;
33993;SDS011;20673;48.980;8.138;2023-11-22T05:10:10;5.93;;;3.80;;
33993;SDS011;20673;48.980;8.138;2023-11-22T05:12:36;5.97;;;3.87;;
33993;SDS011;20673;48.980;8.138;2023-11-22T05:15:02;6.67;;;4.37;;
33993;SDS011;20673;48.980;8.138;2023-11-22T05:17:29;6.77;;;3.90;;
33993;SDS011;20673;48.980;8.138;2023-11-22T05:19:55;7.27;;;4.83;;
33993;SDS011;20673;48.980;8.138;2023-11-22T05:22:21;7.17;;;4.50;;
33993;SDS011;20673;48.980;8.138;2023-11-22T05:24:48;9.27;;;5.43;;
33993;SDS011;20673;48.980;8.138;2023-11-22T05:27:15;6.70;;;4.73;;
33993;SDS011;20673;48.980;8.138;2023-11-22T05:29:42;9.90;;;5.47;;
33993;SDS011;20673;48.980;8.138;2023-11-22T05:32:08;15.03;;;6.40;;
33993;SDS011;20673;48.980;8.138;2023-11-22T05:34:35;14.70;;;8.03;;
33993;SDS011;20673;48.980;8.138;2023-11-22T05:37:01;16.20;;;6.57;;
33993;SDS011;20673;48.980;8.138;2023-11-22T05:39:27;10.40;;;5.73;;
33993;SDS011;20673;48.980;8.138;2023-11-22T05:41:53;7.73;;;5.20;;
33993;SDS011;20673;48.980;8.138;2023-11-22T05:44:19;10.43;;;4.03;;
33993;SDS011;20673;48.980;8.138;2023-11-22T05:46:45;8.07;;;4.23;;
33993;SDS011;20673;48.980;8.138;2023-11-22T05:49:11;7.03;;;4.60;;
33993;SDS011;20673;48.980;8.138;2023-11-22T05:51:37;6.60;;;3.90;;
33993;SDS011;20673;48.980;8.138;2023-11-22T05:54:04;6.40;;;4.10;;
33993;SDS011;20673;48.980;8.138;2023-11-22T05:56:30;6.60;;;4.27;;
33993;SDS011;20673;48.980;8.138;2023-11-22T05:58:57;8.87;;;4.30;;
33993;SDS011;20673;48.980;8.138;2023-11-22T06:01:25;6.77;;;4.37;;
33993;SDS011;20673;48.980;8.138;2023-11-22T06:03:54;6.27;;;3.77;;
33993;SDS011;20673;48.980;8.138;2023-11-22T06:06:20;7.97;;;5.47;;
33993;SDS011;20673;48.980;8.138;2023-11-22T06:08:47;9.70;;;5.57;;
33993;SDS011;20673;48.980;8.138;2023-11-22T06:11:14;7.10;;;4.27;;
33993;SDS011;20673;48.980;8.138;2023-11-22T06:13:43;6.73;;;4.47;;
33993;SDS011;20673;48.980;8.138;2023-11-22T06:16:09;6.33;;;3.93;;
33993;SDS011;20673;48.980;8.138;2023-11-22T06:18:35;7.17;;;4.30;;
33993;SDS011;20673;48.980;8.138;2023-11-22T06:21:03;7.10;;;3.33;;
33993;SDS011;20673;48.980;8.138;2023-11-22T06:23:30;4.93;;;3.47;;
33993;SDS011;20673;48.980;8.138;2023-11-22T06:25:57;5.53;;;3.30;;
33993;SDS011;20673;48.980;8.138;2023-11-22T06:28:23;5.53;;;3.17;;
33993;SDS011;20673;48.980;8.138;2023-11-22T06:30:49;6.23;;;3.27;;
33993;SDS011;20673;48.980;8.138;2023-11-22T06:33:15;5.83;;;3.27;;
33993;SDS011;20673;48.980;8.138;2023-11-22T06:35:41;3.80;;;2.77;;
33993;SDS011;20673;48.980;8.138;2023-11-22T06:38:08;4.87;;;2.90;;
33993;SDS011;20673;48.980;8.138;2023-11-22T06:40:34;4.23;;;2.60;;
33993;SDS011;20673;48.980;8.138;2023-11-22T06:43:01;6.00;;;2.23;;
33993;SDS011;20673;48.980;8.138;2023-11-22T06:45:29;5.07;;;2.93;;
33993;SDS011;20673;48.980;8.138;2023-11-22T06:47:56;5.13;;;3.20;;
33993;SDS011;20673;48.980;8.138;2023-11-22T06:50:23;4.50;;;3.17;;
33993;SDS011;20673;48.980;8.138;2023-11-22T06:52:49;4.30;;;3.03;;
33993;SDS011;20673;48.980;8.138;2023-11-22T06:55:18;4.53;;;3.43;;
33993;SDS011;20673;48.980;8.138;2023-11-22T06:57:44;6.33;;;3.03;;
33993;SDS011;20673;48.980;8.138;2023-11-22T07:00:11;5.53;;;3.20;;
33993;SDS011;20673;48.980;8.138;2023-11-22T07:02:38;8.63;;;4.23;;
33993;SDS011;20673;48.980;8.138;2023-11-22T07:05:05;5.17;;;3.20;;
33993;SDS011;20673;48.980;8.138;2023-11-22T07:07:35;4.47;;;2.87;;
33993;SDS011;20673;48.980;8.138;2023-11-22T07:10:01;5.97;;;2.47;;
33993;SDS011;20673;48.980;8.138;2023-11-22T07:12:33;4.20;;;2.53;;
33993;SDS011;20673;48.980;8.138;2023-11-22T07:15:03;4.77;;;3.10;;
33993;SDS011;20673;48.980;8.138;2023-11-22T07:17:32;3.80;;;2.63;;
33993;SDS011;20673;48.980;8.138;2023-11-22T07:19:59;6.03;;;2.70;;
33993;SDS011;20673;48.980;8.138;2023-11-22T07:22:26;4.03;;;2.53;;
33993;SDS011;20673;48.980;8.138;2023-11-22T07:24:53;5.17;;;3.10;;
33993;SDS011;20673;48.980;8.138;2023-11-22T07:27:23;4.73;;;2.63;;
33993;SDS011;20673;48.980;8.138;2023-11-22T07:29:51;3.97;;;2.60;;
33993;SDS011;20673;48.980;8.138;2023-11-22T07:32:17;5.90;;;2.83;;
33993;SDS011;20673;48.980;8.138;2023-11-22T07:34:45;4.33;;;2.53;;
33993;SDS011;20673;48.980;8.138;2023-11-22T07:37:12;3.83;;;2.77;;
33993;SDS011;20673;48.980;8.138;2023-11-22T07:39:40;6.47;;;2.87;;
33993;SDS011;20673;48.980;8.138;2023-11-22T07:42:08;3.93;;;2.90;;
33993;SDS011;20673;48.980;8.138;2023-11-22T07:44:34;3.37;;;2.33;;
33993;SDS011;20673;48.980;8.138;2023-11-22T07:47:03;4.33;;;2.70;;
33993;SDS011;20673;48.980;8.138;2023-11-22T07:49:34;3.83;;;2.20;;
33993;SDS011;20673;48.980;8.138;2023-11-22T07:52:04;4.33;;;2.77;;
33993;SDS011;20673;48.980;8.138;2023-11-22T07:54:31;4.03;;;2.57;;
33993;SDS011;20673;48.980;8.138;2023-11-22T07:56:58;4.47;;;2.57;;
33993;SDS011;20673;48.980;8.138;2023-11-22T07:59:24;5.13;;;2.57;;
33993;SDS011;20673;48.980;8.138;2023-11-22T08:01:51;4.30;;;2.70;;
33993;SDS011;20673;48.980;8.138;2023-11-22T08:04:19;3.43;;;2.63;;
33993;SDS011;20673;48.980;8.138;2023-11-22T08:06:45;3.30;;;2.60;;
33993;SDS011;20673;48.980;8.138;2023-11-22T08:09:11;3.40;;;2.47;;
33993;SDS011;20673;48.980;8.138;2023-11-22T08:11:37;4.07;;;2.60;;
33993;SDS011;20673;48.980;8.138;2023-11-22T08:14:04;3.83;;;2.10;;
33993;SDS011;20673;48.980;8.138;2023-11-22T08:16:31;2.63;;;2.00;;
33993;SDS011;20673;48.980;8.138;2023-11-22T08:18:59;4.17;;;2.43;;
33993;SDS011;20673;48.980;8.138;2023-11-22T08:21:25;3.17;;;1.77;;
33993;SDS011;20673;48.980;8.138;2023-11-22T08:23:51;3.37;;;2.70;;
33993;SDS011;20673;48.980;8.138;2023-11-22T08:26:18;8.27;;;2.40;;
33993;SDS011;20673;48.980;8.138;2023-11-22T08:28:45;3.43;;;2.10;;
33993;SDS011;20673;48.980;8.138;2023-11-22T08:31:11;4.43;;;2.50;;
33993;SDS011;20673;48.980;8.138;2023-11-22T08:33:37;2.73;;;2.07;;
33993;SDS011;20673;48.980;8.138;2023-11-22T08:36:05;4.57;;;2.40;;
33993;SDS011;20673;48.980;8.138;2023-11-22T08:38:33;3.60;;;2.50;;
33993;SDS011;20673;48.980;8.138;2023-11-22T08:41:02;5.93;;;2.60;;
33993;SDS011;20673;48.980;8.138;2023-11-22T08:43:31;4.03;;;3.07;;
33993;SDS011;20673;48.980;8.138;2023-11-22T08:45:58;5.43;;;2.37;;
33993;SDS011;20673;48.980;8.138;2023-11-22T08:48:25;4.37;;;3.03;;
33993;SDS011;20673;48.980;8.138;2023-11-22T08:50:51;4.17;;;2.33;;
33993;SDS011;20673;48.980;8.138;2023-11-22T08:53:21;3.53;;;2.10;;
33993;SDS011;20673;48.980;8.138;2023-11-22T08:55:47;5.37;;;2.77;;
33993;SDS011;20673;48.980;8.138;2023-11-22T08:58:13;3.07;;;2.07;;
33993;SDS011;20673;48.980;8.138;2023-11-22T09:00:40;3.77;;;1.97;;
33993;SDS011;20673;48.980;8.138;2023-11-22T09:03:07;2.70;;;1.90;;
33993;SDS011;20673;48.980;8.138;2023-11-22T09:05:36;4.07;;;2.07;;
33993;SDS011;20673;48.980;8.138;2023-11-22T09:08:02;4.80;;;2.73;;
33993;SDS011;20673;48.980;8.138;2023-11-22T09:10:29;2.60;;;2.03;;
33993;SDS011;20673;48.980;8.138;2023-11-22T09:12:56;3.20;;;1.90;;
33993;SDS011;20673;48.980;8.138;2023-11-22T09:15:24;3.60;;;2.40;;
33993;SDS011;20673;48.980;8.138;2023-11-22T09:17:52;3.63;;;2.30;;
33993;SDS011;20673;48.980;8.138;2023-11-22T09:20:19;3.23;;;2.20;;
33993;SDS011;20673;48.980;8.138;2023-11-22T09:22:48;3.03;;;2.40;;
33993;SDS011;20673;48.980;8.138;2023-11-22T09:25:20;2.10;;;1.80;;
33993;SDS011;20673;48.980;8.138;2023-11-22T09:27:50;3.00;;;2.10;;
33993;SDS011;20673;48.980;8.138;2023-11-22T09:30:21;2.98;;;2.25;;
33993;SDS011;20673;48.980;8.138;2023-11-22T09:33:03;3.55;;;2.20;;
33993;SDS011;20673;48.980;8.138;2023-11-22T09:35:40;4.20;;;2.27;;
33993;SDS011;20673;48.980;8.138;2023-11-22T09:38:09;3.40;;;2.50;;
33993;SDS011;20673;48.980;8.138;2023-11-22T09:40:41;3.90;;;1.98;;
33993;SDS011;20673;48.980;8.138;2023-11-22T09:43:13;4.25;;;2.08;;
33993;SDS011;20673;48.980;8.138;2023-11-22T09:45:43;3.80;;;2.77;;
33993;SDS011;20673;48.980;8.138;2023-11-22T09:48:16;3.92;;;2.22;;
33993;SDS011;20673;48.980;8.138;2023-11-22T09:53:53;3.85;;;2.85;;
33993;SDS011;20673;48.980;8.138;2023-11-22T09:56:27;3.40;;;2.40;;
33993;SDS011;20673;48.980;8.138;2023-11-22T09:58:54;5.23;;;2.40;;
33993;SDS011;20673;48.980;8.138;2023-11-22T10:01:23;3.50;;;2.40;;
33993;SDS011;20673;48.980;8.138;2023-11-22T10:03:49;4.70;;;2.87;;
33993;SDS011;20673;48.980;8.138;2023-11-22T10:06:17;4.87;;;2.40;;
33993;SDS011;20673;48.980;8.138;2023-11-22T10:08:43;4.80;;;2.87;;
33993;SDS011;20673;48.980;8.138;2023-11-22T10:11:12;4.40;;;2.60;;
33993;SDS011;20673;48.980;8.138;2023-11-22T10:13:52;4.70;;;2.90;;
33993;SDS011;20673;48.980;8.138;2023-11-22T10:16:16;3.77;;;2.60;;
33993;SDS011;20673;48.980;8.138;2023-11-22T10:18:46;3.87;;;2.53;;
33993;SDS011;20673;48.980;8.138;2023-11-22T10:21:23;3.03;;;2.20;;
33993;SDS011;20673;48.980;8.138;2023-11-22T10:23:53;4.73;;;3.00;;
33993;SDS011;20673;48.980;8.138;2023-11-22T10:26:25;3.80;;;2.47;;
33993;SDS011;20673;48.980;8.138;2023-11-22T10:28:53;5.47;;;3.10;;
33993;SDS011;20673;48.980;8.138;2023-11-22T10:31:22;2.73;;;2.10;;
33993;SDS011;20673;48.980;8.138;2023-11-22T10:33:49;3.43;;;2.43;;
33993;SDS011;20673;48.980;8.138;2023-11-22T10:36:18;5.03;;;3.00;;
33993;SDS011;20673;48.980;8.138;2023-11-22T10:38:46;3.73;;;2.37;;
33993;SDS011;20673;48.980;8.138;2023-11-22T10:41:13;5.37;;;2.90;;
33993;SDS011;20673;48.980;8.138;2023-11-22T10:43:40;5.77;;;3.53;;
33993;SDS011;20673;48.980;8.138;2023-11-22T10:46:08;4.83;;;2.90;;
33993;SDS011;20673;48.980;8.138;2023-11-22T10:48:37;4.60;;;2.63;;
33993;SDS011;20673;48.980;8.138;2023-11-22T10:51:03;5.53;;;3.10;;
33993;SDS011;20673;48.980;8.138;2023-11-22T10:58:55;4.33;;;2.70;;
33993;SDS011;20673;48.980;8.138;2023-11-22T11:01:20;4.78;;;2.92;;
33993;SDS011;20673;48.980;8.138;2023-11-22T11:06:39;3.73;;;2.87;;
33993;SDS011;20673;48.980;8.138;2023-11-22T11:09:09;7.13;;;3.17;;
33993;SDS011;20673;48.980;8.138;2023-11-22T11:11:37;3.80;;;2.63;;
33993;SDS011;20673;48.980;8.138;2023-11-22T11:14:07;5.23;;;3.10;;
33993;SDS011;20673;48.980;8.138;2023-11-22T11:16:37;4.20;;;2.77;;
33993;SDS011;20673;48.980;8.138;2023-11-22T11:19:07;6.63;;;2.80;;
33993;SDS011;20673;48.980;8.138;2023-11-22T11:21:35;4.43;;;2.73;;
33993;SDS011;20673;48.980;8.138;2023-11-22T11:24:01;5.40;;;2.67;;
33993;SDS011;20673;48.980;8.138;2023-11-22T11:26:28;4.47;;;2.70;;
33993;SDS011;20673;48.980;8.138;2023-11-22T11:29:03;4.97;;;2.80;;
33993;SDS011;20673;48.980;8.138;2023-11-22T11:31:33;5.00;;;2.80;;
33993;SDS011;20673;48.980;8.138;2023-11-22T11:34:06;7.13;;;3.50;;
33993;SDS011;20673;48.980;8.138;2023-11-22T11:36:32;4.80;;;2.77;;
33993;SDS011;20673;48.980;8.138;2023-11-22T11:39:00;3.70;;;2.40;;
33993;SDS011;20673;48.980;8.138;2023-11-22T11:41:32;5.03;;;2.43;;
33993;SDS011;20673;48.980;8.138;2023-11-22T11:44:02;4.13;;;2.80;;
33993;SDS011;20673;48.980;8.138;2023-11-22T11:46:37;3.40;;;2.20;;
33993;SDS011;20673;48.980;8.138;2023-11-22T11:49:08;4.80;;;2.73;;
33993;SDS011;20673;48.980;8.138;2023-11-22T11:51:39;5.33;;;2.70;;
33993;SDS011;20673;48.980;8.138;2023-11-22T11:54:05;3.97;;;2.93;;
33993;SDS011;20673;48.980;8.138;2023-11-22T11:56:32;3.80;;;2.60;;
33993;SDS011;20673;48.980;8.138;2023-11-22T11:58:59;4.47;;;3.33;;
33993;SDS011;20673;48.980;8.138;2023-11-22T12:01:28;4.20;;;2.70;;
33993;SDS011;20673;48.980;8.138;2023-11-22T12:04:00;3.83;;;2.60;;
33993;SDS011;20673;48.980;8.138;2023-11-22T12:06:29;5.90;;;3.60;;
33993;SDS011;20673;48.980;8.138;2023-11-22T12:08:57;4.43;;;3.00;;
33993;SDS011;20673;48.980;8.138;2023-11-22T12:11:23;4.87;;;3.37;;
33993;SDS011;20673;48.980;8.138;2023-11-22T12:13:49;4.37;;;3.07;;
33993;SDS011;20673;48.980;8.138;2023-11-22T12:16:17;6.17;;;3.10;;
33993;SDS011;20673;48.980;8.138;2023-11-22T12:18:44;4.43;;;2.53;;
33993;SDS011;20673;48.980;8.138;2023-11-22T12:21:13;4.67;;;3.30;;
33993;SDS011;20673;48.980;8.138;2023-11-22T12:23:42;3.40;;;2.50;;
33993;SDS011;20673;48.980;8.138;2023-11-22T12:26:14;3.77;;;2.70;;
33993;SDS011;20673;48.980;8.138;2023-11-22T12:28:45;3.92;;;2.27;;
33993;SDS011;20673;48.980;8.138;2023-11-22T12:31:13;5.23;;;3.83;;
33993;SDS011;20673;48.980;8.138;2023-11-22T12:33:41;3.60;;;2.57;;
33993;SDS011;20673;48.980;8.138;2023-11-22T12:36:09;5.03;;;3.27;;
33993;SDS011;20673;48.980;8.138;2023-11-22T12:38:36;4.10;;;2.77;;
33993;SDS011;20673;48.980;8.138;2023-11-22T12:41:03;3.50;;;2.60;;
33993;SDS011;20673;48.980;8.138;2023-11-22T12:43:32;5.80;;;3.53;;
33993;SDS011;20673;48.980;8.138;2023-11-22T12:46:04;4.07;;;2.90;;
33993;SDS011;20673;48.980;8.138;2023-11-22T12:48:33;4.27;;;2.77;;
33993;SDS011;20673;48.980;8.138;2023-11-22T12:50:59;4.03;;;2.83;;
33993;SDS011;20673;48.980;8.138;2023-11-22T12:53:26;4.37;;;2.73;;
33993;SDS011;20673;48.980;8.138;2023-11-22T12:55:56;3.67;;;2.80;;
33993;SDS011;20673;48.980;8.138;2023-11-22T12:58:23;4.27;;;3.17;;
33993;SDS011;20673;48.980;8.138;2023-11-22T13:00:51;3.37;;;2.50;;
33993;SDS011;20673;48.980;8.138;2023-11-22T13:03:24;4.30;;;3.03;;
33993;SDS011;20673;48.980;8.138;2023-11-22T13:05:51;5.37;;;3.20;;
33993;SDS011;20673;48.980;8.138;2023-11-22T13:08:20;4.70;;;2.90;;
33993;SDS011;20673;48.980;8.138;2023-11-22T13:10:48;8.40;;;3.87;;
33993;SDS011;20673;48.980;8.138;2023-11-22T13:13:23;5.37;;;3.57;;
33993;SDS011;20673;48.980;8.138;2023-11-22T13:15:50;4.17;;;3.03;;
33993;SDS011;20673;48.980;8.138;2023-11-22T13:18:17;4.33;;;3.20;;
33993;SDS011;20673;48.980;8.138;2023-11-22T13:20:44;5.50;;;2.83;;
33993;SDS011;20673;48.980;8.138;2023-11-22T13:23:10;4.87;;;3.03;;
33993;SDS011;20673;48.980;8.138;2023-11-22T13:25:39;5.07;;;2.80;;
33993;SDS011;20673;48.980;8.138;2023-11-22T13:28:07;4.73;;;3.40;;
33993;SDS011;20673;48.980;8.138;2023-11-22T13:30:34;4.23;;;2.77;;
33993;SDS011;20673;48.980;8.138;2023-11-22T13:33:00;3.70;;;2.60;;
33993;SDS011;20673;48.980;8.138;2023-11-22T13:35:28;6.00;;;3.50;;
33993;SDS011;20673;48.980;8.138;2023-11-22T13:38:00;3.60;;;2.70;;
33993;SDS011;20673;48.980;8.138;2023-11-22T13:40:27;4.63;;;2.53;;
33993;SDS011;20673;48.980;8.138;2023-11-22T13:42:58;4.40;;;3.10;;
33993;SDS011;20673;48.980;8.138;2023-11-22T13:45:24;4.00;;;2.80;;
33993;SDS011;20673;48.980;8.138;2023-11-22T13:47:51;3.90;;;2.93;;
33993;SDS011;20673;48.980;8.138;2023-11-22T13:50:27;14.47;;;3.87;;
33993;SDS011;20673;48.980;8.138;2023-11-22T13:52:54;4.10;;;2.70;;
33993;SDS011;20673;48.980;8.138;2023-11-22T13:55:21;3.50;;;2.83;;
33993;SDS011;20673;48.980;8.138;2023-11-22T13:57:52;5.27;;;3.03;;
33993;SDS011;20673;48.980;8.138;2023-11-22T14:00:22;3.67;;;2.65;;
33993;SDS011;20673;48.980;8.138;2023-11-22T14:02:53;5.75;;;3.27;;
33993;SDS011;20673;48.980;8.138;2023-11-22T14:05:22;4.77;;;3.03;;
33993;SDS011;20673;48.980;8.138;2023-11-22T14:07:52;4.55;;;3.15;;
33993;SDS011;20673;48.980;8.138;2023-11-22T14:10:19;3.92;;;2.45;;
33993;SDS011;20673;48.980;8.138;2023-11-22T14:12:50;5.15;;;2.83;;
33993;SDS011;20673;48.980;8.138;2023-11-22T14:15:17;4.10;;;2.98;;
33993;SDS011;20673;48.980;8.138;2023-11-22T14:17:47;6.47;;;3.15;;
33993;SDS011;20673;48.980;8.138;2023-11-22T14:20:15;4.80;;;2.77;;
33993;SDS011;20673;48.980;8.138;2023-11-22T14:22:42;4.60;;;2.65;;
33993;SDS011;20673;48.980;8.138;2023-11-22T14:25:08;4.87;;;3.10;;
33993;SDS011;20673;48.980;8.138;2023-11-22T14:27:41;4.70;;;2.72;;
33993;SDS011;20673;48.980;8.138;2023-11-22T14:30:11;4.78;;;3.35;;
33993;SDS011;20673;48.980;8.138;2023-11-22T14:32:42;3.83;;;2.83;;
33993;SDS011;20673;48.980;8.138;2023-11-22T14:35:09;3.65;;;3.10;;
33993;SDS011;20673;48.980;8.138;2023-11-22T14:37:36;4.10;;;2.72;;
33993;SDS011;20673;48.980;8.138;2023-11-22T14:40:06;4.57;;;3.00;;
33993;SDS011;20673;48.980;8.138;2023-11-22T14:42:38;4.28;;;2.92;;
33993;SDS011;20673;48.980;8.138;2023-11-22T14:45:07;4.93;;;2.77;;
33993;SDS011;20673;48.980;8.138;2023-11-22T14:47:38;4.37;;;3.00;;
33993;SDS011;20673;48.980;8.138;2023-11-22T14:50:06;3.90;;;3.13;;
33993;SDS011;20673;48.980;8.138;2023-11-22T14:52:35;4.70;;;3.00;;
33993;SDS011;20673;48.980;8.138;2023-11-22T14:55:01;3.20;;;2.60;;
33993;SDS011;20673;48.980;8.138;2023-11-22T14:57:30;5.40;;;3.77;;
33993;SDS011;20673;48.980;8.138;2023-11-22T14:59:57;6.47;;;3.07;;
33993;SDS011;20673;48.980;8.138;2023-11-22T15:02:23;5.67;;;3.70;;